Time;durP1;ratioP1;P1;durP2;ratioP2;P2;SDS_P1;SDS_P2;PMS_P1;PMS_P2;Temp;Humidity;BMP_temperature;BMP_pressure;BME280_temperature;BME280_humidity;BME280_pressure;Samples;Min_cycle;Max_cycle;Signal;HPM_P1;HPM_P2
2022/06/24 00:02:17;;;;;;;5.50;3.30;;;;;;100621.11;;;;107553;1287;32762;-45
2022/06/24 00:04:45;;;;;;;6.30;3.50;;;;;;100620.69;;;;107523;1287;34354;-46
2022/06/24 00:07:13;;;;;;;4.70;3.60;;;;;;100621.20;;;;107419;1288;34536;-44
2022/06/24 00:09:40;;;;;;;5.40;3.60;;;;;;100621.83;;;;107433;1288;32759;-45
2022/06/24 00:12:07;;;;;;;5.20;3.10;;;;;;100620.27;;;;107536;1287;34645;-44
2022/06/24 00:14:35;;;;;;;6.90;3.20;;;;;;100616.36;;;;107439;1289;35053;-44
2022/06/24 00:17:02;;;;;;;5.20;3.50;;;;;;100617.38;;;;107421;1289;32659;-45
2022/06/24 00:19:30;;;;;;;4.90;3.40;;;;;;100620.77;;;;107547;1287;34495;-46
2022/06/24 00:21:58;;;;;;;5.60;3.70;;;;;;100618.98;;;;107433;1288;34377;-45
2022/06/24 00:24:25;;;;;;;4.90;3.40;;;;;;100625.13;;;;107548;1287;33897;-44
2022/06/24 00:26:53;;;;;;;5.30;3.40;;;;;;100627.36;;;;107541;1287;34828;-44
2022/06/24 00:29:21;;;;;;;5.40;3.40;;;;;;100629.09;;;;107544;1287;33866;-45
2022/06/24 00:31:48;;;;;;;5.20;3.40;;;;;;100627.59;;;;107427;1286;34380;-44
2022/06/24 00:34:16;;;;;;;5.80;3.30;;;;;;100628.09;;;;107554;1287;32688;-45
2022/06/24 00:36:43;;;;;;;5.60;3.70;;;;;;100628.95;;;;107541;1287;34683;-45
2022/06/24 00:39:11;;;;;;;5.60;3.60;;;;;;100628.47;;;;107513;1287;32703;-48
2022/06/24 00:41:38;;;;;;;5.00;3.50;;;;;;100627.47;;;;107542;1287;32679;-45
2022/06/24 00:44:06;;;;;;;5.70;3.60;;;;;;100628.25;;;;107434;1289;33950;-46
2022/06/24 00:46:33;;;;;;;4.50;3.40;;;;;;100625.85;;;;107570;1287;35081;-44
2022/06/24 00:49:01;;;;;;;6.90;3.50;;;;;;100625.14;;;;107523;1287;34492;-44
2022/06/24 00:51:28;;;;;;;6.00;3.60;;;;;;100620.70;;;;107411;1288;34562;-45
2022/06/24 00:53:59;;;;;;;6.00;3.50;;;;;;100621.45;;;;107531;1287;34961;-45
2022/06/24 00:56:26;;;;;;;5.80;3.90;;;;;;100620.31;;;;107518;1287;33192;-45
2022/06/24 00:58:54;;;;;;;5.00;3.60;;;;;;100620.77;;;;107511;1287;34452;-46
2022/06/24 01:01:21;;;;;;;5.80;3.90;;;;;;100622.91;;;;107426;1289;34975;-44
2022/06/24 01:03:49;;;;;;;6.00;3.90;;;;;;100622.75;;;;107545;1287;32745;-45
2022/06/24 01:06:16;;;;;;;6.20;3.80;;;;;;100619.39;;;;107548;1287;34380;-45
2022/06/24 01:08:43;;;;;;;5.00;3.80;;;;;;100623.61;;;;107511;1287;34578;-45
2022/06/24 01:11:11;;;;;;;6.10;4.00;;;;;;100620.55;;;;107434;1289;34322;-44
2022/06/24 01:13:38;;;;;;;5.60;3.80;;;;;;100620.31;;;;107525;1287;34002;-45
2022/06/24 01:16:06;;;;;;;5.10;3.40;;;;;;100623.68;;;;107436;1289;34812;-46
2022/06/24 01:18:33;;;;;;;5.00;3.60;;;;;;100624.48;;;;107530;1287;33426;-45
2022/06/24 01:21:01;;;;;;;6.40;4.20;;;;;;100622.41;;;;107539;1287;34402;-47
2022/06/24 01:23:28;;;;;;;6.30;3.50;;;;;;100623.71;;;;107529;1287;34533;-45
2022/06/24 01:25:56;;;;;;;5.70;3.60;;;;;;100620.55;;;;107546;1287;32739;-49
2022/06/24 01:28:23;;;;;;;5.30;4.00;;;;;;100619.05;;;;107567;1287;33830;-45
2022/06/24 01:30:51;;;;;;;5.00;3.70;;;;;;100615.42;;;;107568;1287;34596;-45
2022/06/24 01:33:19;;;;;;;5.40;3.50;;;;;;100615.41;;;;107549;1287;33889;-45
2022/06/24 01:35:47;;;;;;;5.30;3.70;;;;;;100614.55;;;;107521;1287;34447;-45
2022/06/24 01:38:14;;;;;;;5.40;3.60;;;;;;100614.30;;;;107509;1287;33717;-45
2022/06/24 01:40:41;;;;;;;6.40;4.30;;;;;;100614.09;;;;107412;1290;33792;-45
2022/06/24 01:43:09;;;;;;;6.60;4.10;;;;;;100614.77;;;;107431;1288;34316;-45
2022/06/24 01:45:37;;;;;;;6.30;4.10;;;;;;100612.79;;;;107411;1290;34618;-45
2022/06/24 01:48:04;;;;;;;7.20;4.10;;;;;;100613.31;;;;107540;1287;34740;-48
2022/06/24 01:50:32;;;;;;;6.70;4.10;;;;;;100611.95;;;;107531;1287;34261;-45
2022/06/24 01:52:59;;;;;;;7.50;4.10;;;;;;100612.84;;;;107420;1288;34887;-45
2022/06/24 01:55:27;;;;;;;7.00;4.20;;;;;;100610.02;;;;107532;1287;34548;-45
2022/06/24 01:57:54;;;;;;;5.40;3.80;;;;;;100610.23;;;;107511;1287;34847;-45
2022/06/24 02:00:22;;;;;;;6.40;4.30;;;;;;100609.36;;;;107543;1287;33817;-45
2022/06/24 02:02:49;;;;;;;6.40;4.00;;;;;;100612.65;;;;107529;1292;34572;-45
2022/06/24 02:05:17;;;;;;;6.80;4.20;;;;;;100612.10;;;;107530;1287;34345;-45
2022/06/24 02:07:44;;;;;;;6.80;4.20;;;;;;100618.53;;;;107555;1287;33115;-45
2022/06/24 02:15:44;;;;;;;8.50;4.30;;;;;;100623.14;;;;107540;1287;33979;-45
2022/06/24 02:18:12;;;;;;;5.50;4.10;;;;;;100622.76;;;;107521;1287;33276;-46
2022/06/24 02:20:39;;;;;;;6.10;4.00;;;;;;100623.36;;;;107430;1288;34608;-45
2022/06/24 02:23:07;;;;;;;5.80;4.40;;;;;;100618.54;;;;107537;1287;34955;-45
2022/06/24 02:25:34;;;;;;;7.10;4.30;;;;;;100619.32;;;;107535;1287;34271;-45
2022/06/24 02:28:02;;;;;;;7.60;3.90;;;;;;100620.93;;;;107438;1288;34562;-44
2022/06/24 02:30:29;;;;;;;6.60;3.90;;;;;;100620.39;;;;107416;1288;34508;-44
2022/06/24 02:32:57;;;;;;;7.20;4.10;;;;;;100622.97;;;;107564;1287;34434;-44
2022/06/24 02:35:24;;;;;;;6.10;4.10;;;;;;100624.64;;;;107564;1287;34470;-45
2022/06/24 02:37:52;;;;;;;5.70;4.40;;;;;;100625.05;;;;107565;1287;34959;-45
2022/06/24 02:43:05;;;;;;;6.80;4.10;;;;;;100630.00;;;;107541;1287;34550;-46
2022/06/24 02:45:32;;;;;;;6.10;4.00;;;;;;100630.05;;;;107433;1288;34674;-45
2022/06/24 02:48:00;;;;;;;5.80;4.30;;;;;;100629.80;;;;107525;1287;35120;-45
2022/06/24 02:50:27;;;;;;;5.40;4.10;;;;;;100632.42;;;;107434;1288;32900;-45
2022/06/24 02:52:54;;;;;;;7.00;4.40;;;;;;100635.10;;;;107534;1287;33814;-45
2022/06/24 02:55:22;;;;;;;6.40;4.20;;;;;;100639.75;;;;107530;1287;34526;-48
2022/06/24 02:57:49;;;;;;;6.80;4.50;;;;;;100643.69;;;;107543;1287;32719;-45
2022/06/24 03:00:17;;;;;;;6.00;4.60;;;;;;100638.80;;;;107530;1287;34654;-46
2022/06/24 03:02:44;;;;;;;6.70;4.60;;;;;;100639.63;;;;107560;1287;34805;-45
2022/06/24 03:05:12;;;;;;;8.70;4.80;;;;;;100642.64;;;;107548;1287;33976;-48
2022/06/24 03:07:39;;;;;;;5.80;4.50;;;;;;100643.32;;;;107552;1287;34502;-45
2022/06/24 03:10:07;;;;;;;6.40;4.60;;;;;;100641.46;;;;107540;1287;34508;-45
2022/06/24 03:12:35;;;;;;;8.10;5.30;;;;;;100639.41;;;;107526;1287;32745;-46
2022/06/24 03:15:02;;;;;;;7.20;4.60;;;;;;100640.26;;;;107430;1289;33951;-49
2022/06/24 03:17:29;;;;;;;7.50;4.80;;;;;;100640.91;;;;107546;1287;34499;-48
2022/06/24 03:19:57;;;;;;;6.90;4.70;;;;;;100643.84;;;;107563;1287;33025;-48
2022/06/24 03:22:25;;;;;;;8.20;5.30;;;;;;100642.40;;;;107455;1288;34700;-48
2022/06/24 03:24:52;;;;;;;7.00;4.90;;;;;;100643.65;;;;107562;1287;34504;-45
2022/06/24 03:27:20;;;;;;;8.60;5.40;;;;;;100644.17;;;;107440;1289;34804;-45
2022/06/24 03:29:47;;;;;;;7.90;4.90;;;;;;100642.89;;;;107551;1287;34422;-47
2022/06/24 03:32:15;;;;;;;7.00;4.60;;;;;;100644.39;;;;107539;1287;33671;-45
2022/06/24 03:34:42;;;;;;;6.90;4.50;;;;;;100645.77;;;;107565;1287;34512;-45
2022/06/24 03:37:10;;;;;;;7.10;4.70;;;;;;100649.47;;;;107540;1287;32822;-45
2022/06/24 03:39:37;;;;;;;6.70;4.50;;;;;;100649.63;;;;107538;1287;34646;-45
2022/06/24 03:42:05;;;;;;;6.30;4.40;;;;;;100650.98;;;;107563;1287;35008;-45
2022/06/24 03:44:32;;;;;;;6.30;4.50;;;;;;100650.34;;;;107447;1288;32752;-45
2022/06/24 03:47:01;;;;;;;5.80;4.60;;;;;;100651.19;;;;107547;1292;34394;-45
2022/06/24 03:49:28;;;;;;;6.80;4.40;;;;;;100650.39;;;;107562;1287;34615;-45
2022/06/24 03:51:56;;;;;;;6.50;4.50;;;;;;100651.61;;;;107449;1288;34300;-44
2022/06/24 03:54:23;;;;;;;7.40;4.40;;;;;;100653.16;;;;107441;1289;34551;-44
2022/06/24 03:56:51;;;;;;;7.00;4.80;;;;;;100654.46;;;;107441;1289;33718;-45
2022/06/24 03:59:18;;;;;;;7.30;4.80;;;;;;100653.36;;;;107444;1288;33501;-45
2022/06/24 04:01:46;;;;;;;6.30;5.00;;;;;;100653.48;;;;107553;1287;34300;-49
2022/06/24 04:04:13;;;;;;;5.90;4.80;;;;;;100655.61;;;;107568;1287;34560;-45
2022/06/24 04:06:42;;;;;;;6.30;4.70;;;;;;100656.64;;;;107470;1288;32711;-45
2022/06/24 04:09:09;;;;;;;7.10;4.90;;;;;;100657.92;;;;107551;1287;34281;-45
2022/06/24 04:11:37;;;;;;;8.00;4.80;;;;;;100659.44;;;;107449;1289;34635;-44
2022/06/24 04:14:04;;;;;;;6.50;4.80;;;;;;100660.27;;;;107549;1287;32847;-44
2022/06/24 04:16:32;;;;;;;6.50;4.90;;;;;;100660.38;;;;107446;1288;34290;-45
2022/06/24 04:18:59;;;;;;;6.00;4.80;;;;;;100662.51;;;;107567;1287;34592;-44
2022/06/24 04:21:28;;;;;;;6.50;4.60;;;;;;100667.94;;;;107550;1287;34420;-46
2022/06/24 04:23:55;;;;;;;6.60;4.60;;;;;;100668.95;;;;107568;1287;32745;-46
2022/06/24 04:26:23;;;;;;;5.80;4.60;;;;;;100668.85;;;;107577;1287;34730;-45
2022/06/24 04:28:51;;;;;;;6.70;4.50;;;;;;100668.64;;;;107457;1288;34478;-48
2022/06/24 04:31:18;;;;;;;7.00;4.90;;;;;;100669.91;;;;107455;1288;34354;-45
2022/06/24 04:33:47;;;;;;;5.30;4.40;;;;;;100672.36;;;;107543;1287;34644;-44
2022/06/24 04:36:14;;;;;;;6.80;4.80;;;;;;100669.35;;;;107535;1287;34812;-44
2022/06/24 04:38:42;;;;;;;6.10;4.90;;;;;;100669.08;;;;107557;1287;33661;-44
2022/06/24 04:41:09;;;;;;;6.50;4.90;;;;;;100670.63;;;;107440;1288;34470;-45
2022/06/24 04:43:36;;;;;;;5.90;4.70;;;;;;100668.08;;;;107546;1287;34447;-47
2022/06/24 04:46:04;;;;;;;5.40;4.30;;;;;;100669.52;;;;107434;1288;34381;-45
2022/06/24 04:48:31;;;;;;;6.60;4.50;;;;;;100668.94;;;;107570;1287;34569;-45
2022/06/24 04:50:59;;;;;;;6.60;4.70;;;;;;100666.48;;;;107448;1288;34627;-45
2022/06/24 04:53:27;;;;;;;7.40;4.80;;;;;;100668.16;;;;107564;1287;34690;-45
2022/06/24 04:55:54;;;;;;;6.50;4.80;;;;;;100670.83;;;;107431;1290;34739;-45
2022/06/24 04:58:22;;;;;;;5.80;4.40;;;;;;100669.24;;;;107526;1287;34369;-44
2022/06/24 05:00:49;;;;;;;5.90;4.80;;;;;;100670.60;;;;107550;1287;33920;-45
2022/06/24 05:03:17;;;;;;;7.10;5.00;;;;;;100665.69;;;;107567;1287;34271;-46
2022/06/24 05:05:44;;;;;;;6.10;4.60;;;;;;100667.66;;;;107566;1287;33868;-45
2022/06/24 05:08:12;;;;;;;6.00;4.60;;;;;;100666.21;;;;107584;1287;32624;-45
2022/06/24 05:10:39;;;;;;;7.20;4.60;;;;;;100668.74;;;;107552;1287;34403;-49
2022/06/24 05:13:07;;;;;;;7.70;4.90;;;;;;100668.79;;;;107432;1290;34960;-45
2022/06/24 05:15:34;;;;;;;6.30;4.30;;;;;;100668.88;;;;107444;1288;34847;-45
2022/06/24 05:18:02;;;;;;;7.10;4.20;;;;;;100667.77;;;;107461;1289;32669;-46
2022/06/24 05:20:29;;;;;;;5.00;3.80;;;;;;100664.80;;;;107530;1287;33524;-47
2022/06/24 05:22:57;;;;;;;5.80;3.80;;;;;;100663.55;;;;107538;1287;34801;-46
2022/06/24 05:25:24;;;;;;;5.30;4.00;;;;;;100664.47;;;;107545;1287;34316;-45
2022/06/24 05:27:52;;;;;;;6.30;4.00;;;;;;100668.33;;;;107559;1287;34638;-46
2022/06/24 05:30:19;;;;;;;5.80;3.80;;;;;;100667.95;;;;107580;1287;34405;-45
2022/06/24 05:32:46;;;;;;;6.20;3.80;;;;;;100667.17;;;;107578;1287;34692;-45
2022/06/24 05:35:14;;;;;;;5.80;3.70;;;;;;100665.10;;;;107574;1287;34521;-45
2022/06/24 05:37:41;;;;;;;5.60;4.20;;;;;;100665.85;;;;107551;1287;34762;-45
2022/06/24 05:40:09;;;;;;;5.30;3.30;;;;;;100671.80;;;;107538;1287;32812;-46
2022/06/24 05:42:36;;;;;;;5.20;3.40;;;;;;100670.02;;;;107557;1287;34281;-45
2022/06/24 05:45:04;;;;;;;7.40;3.70;;;;;;100668.86;;;;107560;1287;34654;-47
2022/06/24 05:47:32;;;;;;;5.30;3.30;;;;;;100667.94;;;;107554;1287;32726;-46
2022/06/24 05:49:59;;;;;;;5.80;3.70;;;;;;100663.80;;;;107598;1287;34355;-46
2022/06/24 05:55:08;;;;;;;5.60;3.50;;;;;;100667.23;;;;107111;1290;34968;-47
2022/06/24 05:57:36;;;;;;;5.20;3.30;;;;;;100668.05;;;;107578;1287;34457;-45
2022/06/24 06:00:04;;;;;;;5.80;3.70;;;;;;100671.65;;;;107580;1287;34655;-44
2022/06/24 06:02:32;;;;;;;6.70;3.50;;;;;;100665.89;;;;107457;1288;34519;-45
2022/06/24 06:04:59;;;;;;;5.00;3.20;;;;;;100668.77;;;;107382;1287;238585;-47
2022/06/24 06:07:27;;;;;;;5.00;3.40;;;;;;100669.52;;;;107588;1287;34426;-44
2022/06/24 06:09:55;;;;;;;6.30;3.30;;;;;;100667.80;;;;107548;1287;32645;-46
2022/06/24 06:12:23;;;;;;;5.20;3.20;;;;;;100665.26;;;;107544;1287;32863;-48
2022/06/24 06:14:51;;;;;;;6.30;3.60;;;;;;100665.56;;;;107565;1287;34246;-42
2022/06/24 06:19:57;;;;;;;5.30;3.50;;;;;;100667.65;;;;107497;1246;32783;-46
2022/06/24 06:22:25;;;;;;;5.40;3.00;;;;;;100667.98;;;;107381;1290;34269;-44
2022/06/24 06:24:53;;;;;;;4.80;2.90;;;;;;100666.21;;;;107378;1290;32759;-45
2022/06/24 06:27:20;;;;;;;6.00;2.80;;;;;;100662.22;;;;107377;1290;34883;-43
2022/06/24 06:29:47;;;;;;;6.20;3.00;;;;;;100666.26;;;;107381;1291;34683;-39
2022/06/24 06:32:15;;;;;;;6.30;3.40;;;;;;100668.46;;;;107374;1290;33395;-40
2022/06/24 06:34:42;;;;;;;5.30;3.10;;;;;;100669.16;;;;107386;1290;34489;-40
2022/06/24 06:37:11;;;;;;;5.20;2.90;;;;;;100667.93;;;;107376;1291;34015;-43
2022/06/24 06:39:38;;;;;;;7.00;2.90;;;;;;100664.73;;;;107387;1295;34020;-41
2022/06/24 06:42:05;;;;;;;5.30;3.10;;;;;;100664.59;;;;107392;1290;34441;-42
2022/06/24 06:44:33;;;;;;;4.70;2.90;;;;;;100662.03;;;;107452;1290;34295;-44
2022/06/24 06:47:00;;;;;;;5.90;3.10;;;;;;100659.36;;;;107432;1290;34491;-41
2022/06/24 06:49:28;;;;;;;5.70;2.90;;;;;;100657.85;;;;107422;1290;34606;-44
2022/06/24 06:51:55;;;;;;;4.50;2.70;;;;;;100658.13;;;;107426;1289;33263;-43
2022/06/24 06:54:23;;;;;;;5.70;3.00;;;;;;100658.13;;;;107408;1290;33881;-46
2022/06/24 06:56:50;;;;;;;4.60;2.90;;;;;;100656.50;;;;107421;1290;34589;-43
2022/06/24 06:59:18;;;;;;;6.10;3.10;;;;;;100657.11;;;;107413;1291;34291;-44
2022/06/24 07:01:45;;;;;;;7.70;3.20;;;;;;100656.30;;;;107378;1290;34287;-43
2022/06/24 07:04:13;;;;;;;5.20;2.90;;;;;;100655.91;;;;107416;1290;34629;-42
2022/06/24 07:06:40;;;;;;;5.70;3.20;;;;;;100650.45;;;;107446;1290;35067;-47
2022/06/24 07:09:08;;;;;;;5.50;2.90;;;;;;100648.23;;;;107417;1290;34804;-42
2022/06/24 07:11:35;;;;;;;5.80;2.90;;;;;;100649.34;;;;107405;1290;34660;-43
2022/06/24 07:14:02;;;;;;;5.40;2.90;;;;;;100646.34;;;;107403;1290;34335;-46
2022/06/24 07:16:30;;;;;;;4.70;2.70;;;;;;100649.59;;;;107431;1290;34365;-41
2022/06/24 07:18:57;;;;;;;5.60;2.70;;;;;;100649.05;;;;107339;1291;34770;-41
2022/06/24 07:21:25;;;;;;;4.60;2.60;;;;;;100641.20;;;;107339;1291;32727;-46
2022/06/24 07:23:52;;;;;;;5.40;2.80;;;;;;100639.39;;;;107371;1290;32764;-45
2022/06/24 07:26:20;;;;;;;4.70;2.70;;;;;;100636.84;;;;107399;1290;33933;-46
2022/06/24 07:28:47;;;;;;;4.50;2.80;;;;;;100640.38;;;;107316;1291;32749;-49
2022/06/24 07:31:15;;;;;;;5.10;2.50;;;;;;100637.77;;;;107280;1291;33555;-45
2022/06/24 07:33:42;;;;;;;6.20;2.60;;;;;;100637.67;;;;107348;1291;35221;-48
2022/06/24 07:36:10;;;;;;;5.10;2.70;;;;;;100635.81;;;;107318;1290;32816;-46
2022/06/24 07:38:37;;;;;;;5.70;2.60;;;;;;100635.08;;;;107381;1290;33796;-46
2022/06/24 07:41:05;;;;;;;5.10;2.80;;;;;;100635.54;;;;107418;1290;34853;-46
2022/06/24 07:43:33;;;;;;;5.70;2.60;;;;;;100636.59;;;;107385;1290;34618;-46
2022/06/24 07:46:00;;;;;;;5.40;2.70;;;;;;100638.15;;;;107412;1290;34848;-43
2022/06/24 07:48:27;;;;;;;5.40;2.90;;;;;;100638.38;;;;107376;1290;34869;-44
2022/06/24 07:50:55;;;;;;;4.50;3.00;;;;;;100638.94;;;;107387;1290;34637;-43
2022/06/24 07:53:22;;;;;;;4.70;2.50;;;;;;100635.65;;;;107346;1290;34435;-43
2022/06/24 07:58:35;;;;;;;5.30;2.90;;;;;;100630.73;;;;107273;1291;35015;-50
2022/06/24 08:01:02;;;;;;;3.90;2.40;;;;;;100629.66;;;;107260;1291;34573;-48
2022/06/24 08:03:30;;;;;;;5.30;2.60;;;;;;100629.94;;;;107285;1291;34467;-49
2022/06/24 08:05:57;;;;;;;5.10;2.80;;;;;;100625.41;;;;107260;1291;34825;-48
2022/06/24 08:08:25;;;;;;;6.80;2.70;;;;;;100620.53;;;;107258;1291;34282;-49
2022/06/24 08:10:52;;;;;;;5.30;2.70;;;;;;100618.60;;;;107269;1291;33885;-44
2022/06/24 08:13:20;;;;;;;4.10;2.30;;;;;;100610.70;;;;107249;1291;34250;-44
2022/06/24 08:15:47;;;;;;;4.60;2.30;;;;;;100609.17;;;;107262;1291;34962;-44
2022/06/24 08:18:17;;;;;;;4.70;2.60;;;;;;100609.14;;;;107284;1291;32739;-44
2022/06/24 08:20:44;;;;;;;4.90;2.10;;;;;;100601.55;;;;107274;1291;33965;-42
2022/06/24 08:23:11;;;;;;;4.00;2.20;;;;;;100607.05;;;;107354;1290;34023;-44
2022/06/24 08:25:39;;;;;;;4.40;2.50;;;;;;100601.30;;;;107335;1290;34494;-43
2022/06/24 08:28:06;;;;;;;4.00;2.20;;;;;;100603.67;;;;107332;1290;34929;-41
2022/06/24 08:30:34;;;;;;;4.10;2.50;;;;;;100598.23;;;;107387;1290;34857;-43
2022/06/24 08:33:02;;;;;;;5.30;2.30;;;;;;100601.55;;;;107386;1290;33076;-44
2022/06/24 08:35:29;;;;;;;4.00;2.50;;;;;;100601.05;;;;107382;1290;36139;-44
2022/06/24 08:37:57;;;;;;;4.60;2.60;;;;;;100596.65;;;;107400;1290;35203;-44
2022/06/24 08:40:24;;;;;;;4.30;2.20;;;;;;100589.52;;;;107399;1290;35024;-44
2022/06/24 08:42:52;;;;;;;3.70;2.10;;;;;;100589.14;;;;107414;1290;34405;-45
2022/06/24 08:45:19;;;;;;;4.90;2.40;;;;;;100586.42;;;;107388;1290;34939;-44
2022/06/24 08:47:47;;;;;;;4.20;2.20;;;;;;100582.70;;;;107393;1291;32757;-44
2022/06/24 08:50:14;;;;;;;4.40;2.50;;;;;;100585.15;;;;107408;1290;33920;-44
2022/06/24 08:52:42;;;;;;;4.80;2.20;;;;;;100586.20;;;;107397;1290;34312;-44
2022/06/24 08:55:09;;;;;;;3.80;1.90;;;;;;100577.89;;;;107404;1290;34464;-44
2022/06/24 08:57:37;;;;;;;3.50;2.10;;;;;;100584.38;;;;107418;1290;33879;-44
2022/06/24 09:00:04;;;;;;;4.20;2.00;;;;;;100580.29;;;;107425;1290;35016;-44
2022/06/24 09:02:31;;;;;;;5.00;2.50;;;;;;100578.81;;;;107392;1291;34394;-45
2022/06/24 09:04:59;;;;;;;3.90;1.90;;;;;;100573.48;;;;107408;1290;34811;-44
2022/06/24 09:07:26;;;;;;;3.40;1.90;;;;;;100575.42;;;;107385;1290;35175;-45
2022/06/24 09:09:54;;;;;;;3.80;1.80;;;;;;100578.02;;;;107390;1290;35095;-44
2022/06/24 09:12:21;;;;;;;3.60;2.00;;;;;;100573.67;;;;107394;1290;34531;-44
2022/06/24 09:14:49;;;;;;;3.70;2.10;;;;;;100575.75;;;;107378;1288;33910;-44
2022/06/24 09:17:16;;;;;;;3.40;1.90;;;;;;100569.93;;;;107387;1290;35150;-47
2022/06/24 09:19:44;;;;;;;3.60;1.90;;;;;;100569.73;;;;107401;1290;35085;-44
2022/06/24 09:22:11;;;;;;;3.70;2.00;;;;;;100569.55;;;;107413;1290;33913;-44
2022/06/24 09:24:39;;;;;;;3.90;2.00;;;;;;100561.58;;;;107389;1290;34881;-44
2022/06/24 09:27:07;;;;;;;3.90;1.90;;;;;;100557.24;;;;107321;1290;35249;-44
2022/06/24 09:29:35;;;;;;;3.50;1.80;;;;;;100558.14;;;;107289;1291;34814;-45
2022/06/24 09:32:02;;;;;;;3.80;1.80;;;;;;100561.36;;;;107269;1291;34748;-44
2022/06/24 09:34:30;;;;;;;3.60;1.90;;;;;;100560.56;;;;107258;1291;32693;-44
2022/06/24 09:36:57;;;;;;;3.20;1.90;;;;;;100555.36;;;;107287;1291;33947;-42
2022/06/24 09:39:25;;;;;;;3.80;2.00;;;;;;100556.94;;;;107374;1291;34436;-43
2022/06/24 09:41:54;;;;;;;3.50;1.80;;;;;;100549.64;;;;107266;1291;32953;-48
2022/06/24 09:44:21;;;;;;;4.20;1.70;;;;;;100549.11;;;;107275;1291;34417;-44
2022/06/24 09:46:49;;;;;;;3.90;2.10;;;;;;100546.69;;;;107262;1291;34899;-44
2022/06/24 09:49:17;;;;;;;3.20;1.90;;;;;;100545.31;;;;107269;1291;34352;-43
2022/06/24 09:51:45;;;;;;;3.70;1.80;;;;;;100546.02;;;;107262;1291;34345;-43
2022/06/24 09:54:12;;;;;;;3.50;2.00;;;;;;100543.27;;;;107266;1291;34893;-44
2022/06/24 09:56:40;;;;;;;4.30;1.90;;;;;;100536.57;;;;107211;1292;32723;-43
2022/06/24 10:01:53;;;;;;;4.40;2.10;;;;;;100529.30;;;;107268;1291;33119;-43
2022/06/24 10:04:21;;;;;;;4.70;2.10;;;;;;100533.11;;;;107270;1291;34936;-43
2022/06/24 10:06:48;;;;;;;3.40;1.90;;;;;;100527.36;;;;107274;1291;32866;-44
2022/06/24 10:09:16;;;;;;;3.60;1.90;;;;;;100529.73;;;;107278;1291;35334;-44
2022/06/24 10:11:43;;;;;;;3.80;2.00;;;;;;100525.17;;;;107247;1292;34865;-44
2022/06/24 10:14:12;;;;;;;3.60;1.90;;;;;;100518.11;;;;107253;1291;32711;-43
2022/06/24 10:16:40;;;;;;;3.30;1.70;;;;;;100509.05;;;;107269;1291;33666;-44
2022/06/24 10:19:07;;;;;;;3.70;2.00;;;;;;100504.27;;;;107253;1291;33805;-44
2022/06/24 10:21:35;;;;;;;3.60;1.80;;;;;;100502.63;;;;107272;1291;35169;-43
2022/06/24 10:24:03;;;;;;;3.90;1.90;;;;;;100504.30;;;;107249;1283;32727;-44
2022/06/24 10:26:30;;;;;;;3.00;1.80;;;;;;100504.23;;;;107288;1291;34738;-44
2022/06/24 10:28:58;;;;;;;3.20;1.70;;;;;;100497.98;;;;107385;1290;33982;-43
2022/06/24 10:31:25;;;;;;;4.90;2.10;;;;;;100498.70;;;;107371;1290;34425;-43
2022/06/24 10:33:53;;;;;;;4.20;2.10;;;;;;100501.88;;;;107411;1291;33822;-44
2022/06/24 10:36:20;;;;;;;3.30;1.80;;;;;;100498.99;;;;107394;1291;35141;-44
2022/06/24 10:38:48;;;;;;;3.80;1.90;;;;;;100495.86;;;;107394;1290;34493;-43
2022/06/24 10:41:15;;;;;;;3.50;1.80;;;;;;100494.80;;;;107360;1291;34923;-44
2022/06/24 10:43:43;;;;;;;3.90;2.00;;;;;;100490.41;;;;107374;1290;34894;-44
2022/06/24 10:46:11;;;;;;;3.90;2.10;;;;;;100496.38;;;;107387;1290;33895;-44
2022/06/24 10:48:38;;;;;;;4.40;2.20;;;;;;100493.83;;;;107390;1290;34969;-43
2022/06/24 10:51:06;;;;;;;3.80;2.00;;;;;;100484.39;;;;107410;1290;35032;-43
2022/06/24 10:53:33;;;;;;;4.30;1.90;;;;;;100485.63;;;;107395;1290;33984;-43
2022/06/24 10:56:01;;;;;;;3.30;1.70;;;;;;100481.45;;;;107370;1290;34888;-43
2022/06/24 10:58:28;;;;;;;3.00;1.70;;;;;;100490.08;;;;107393;1290;34709;-43
2022/06/24 11:00:56;;;;;;;3.60;1.80;;;;;;100483.31;;;;107388;1290;33190;-43
2022/06/24 11:03:23;;;;;;;3.30;1.70;;;;;;100474.58;;;;107370;1290;34441;-44
2022/06/24 11:05:52;;;;;;;3.80;2.30;;;;;;100474.14;;;;107380;1290;33796;-45
2022/06/24 11:08:19;;;;;;;3.60;1.90;;;;;;100471.44;;;;107392;1290;32934;-44
2022/06/24 11:10:47;;;;;;;3.40;1.70;;;;;;100467.69;;;;107417;1290;34333;-41
2022/06/24 11:13:15;;;;;;;3.50;1.80;;;;;;100464.70;;;;107399;1290;33847;-41
2022/06/24 11:15:43;;;;;;;4.40;2.00;;;;;;100460.85;;;;107387;1290;32862;-41
2022/06/24 11:18:10;;;;;;;3.20;1.80;;;;;;100457.53;;;;107376;1290;32736;-41
2022/06/24 11:20:38;;;;;;;3.80;2.00;;;;;;100456.23;;;;107374;1290;34760;-41
2022/06/24 11:23:05;;;;;;;3.80;1.90;;;;;;100454.45;;;;107393;1290;34637;-41
2022/06/24 11:25:33;;;;;;;4.60;2.00;;;;;;100455.87;;;;107366;1290;34705;-44
2022/06/24 11:28:00;;;;;;;8.70;1.90;;;;;;100456.23;;;;107345;1290;32841;-43
2022/06/24 11:30:28;;;;;;;3.30;1.60;;;;;;100447.48;;;;107290;1291;34351;-44
2022/06/24 11:32:55;;;;;;;3.60;1.80;;;;;;100440.71;;;;107303;1291;34536;-41
2022/06/24 11:35:23;;;;;;;3.90;1.70;;;;;;100434.54;;;;107336;1291;35007;-41
2022/06/24 11:37:51;;;;;;;3.50;1.70;;;;;;100444.66;;;;107315;1291;32814;-41
2022/06/24 11:40:18;;;;;;;4.30;1.90;;;;;;100439.71;;;;107370;1290;34363;-40
2022/06/24 11:42:46;;;;;;;3.80;1.80;;;;;;100438.39;;;;107379;1291;34064;-39
2022/06/24 11:45:13;;;;;;;3.90;2.00;;;;;;100430.88;;;;107384;1291;32803;-40
2022/06/24 11:47:41;;;;;;;3.60;1.80;;;;;;100426.52;;;;107242;1291;34362;-40
2022/06/24 11:50:08;;;;;;;2.90;1.60;;;;;;100421.97;;;;107404;1290;34901;-40
2022/06/24 11:52:36;;;;;;;3.60;1.80;;;;;;100425.64;;;;107406;1290;32717;-40
2022/06/24 11:55:03;;;;;;;3.70;1.90;;;;;;100433.38;;;;107401;1291;34207;-39
2022/06/24 11:57:31;;;;;;;4.30;2.00;;;;;;100427.25;;;;107379;1290;34788;-39
2022/06/24 11:59:58;;;;;;;3.80;2.00;;;;;;100421.69;;;;107378;1290;32730;-40
2022/06/24 12:02:26;;;;;;;4.80;2.00;;;;;;100418.05;;;;107389;1290;34457;-39
2022/06/24 12:04:53;;;;;;;3.60;2.10;;;;;;100414.67;;;;107383;1290;33119;-39
2022/06/24 12:07:21;;;;;;;4.00;1.80;;;;;;100411.58;;;;107355;1290;34383;-39
2022/06/24 12:09:48;;;;;;;3.90;2.00;;;;;;100413.02;;;;107389;1290;35067;-39
2022/06/24 12:12:16;;;;;;;3.60;2.10;;;;;;100411.95;;;;107402;1290;34943;-39
2022/06/24 12:14:43;;;;;;;3.80;1.70;;;;;;100412.23;;;;107377;1290;32887;-40
2022/06/24 12:17:11;;;;;;;2.90;1.60;;;;;;100408.01;;;;107382;1290;34513;-39
2022/06/24 12:19:40;;;;;;;3.60;2.00;;;;;;100409.31;;;;107373;1291;33430;-39
2022/06/24 12:22:08;;;;;;;3.80;2.00;;;;;;100407.30;;;;107429;1291;35460;-40
2022/06/24 12:24:35;;;;;;;2.60;1.40;;;;;;100405.72;;;;107395;1290;34428;-40
2022/06/24 12:27:04;;;;;;;3.40;1.70;;;;;;100408.80;;;;107391;1291;34268;-39
2022/06/24 12:29:32;;;;;;;3.70;2.00;;;;;;100399.95;;;;107374;1290;35352;-37
2022/06/24 12:32:00;;;;;;;3.10;1.70;;;;;;100404.44;;;;107404;1290;34015;-38
2022/06/24 12:34:27;;;;;;;3.00;1.70;;;;;;100400.39;;;;107369;1290;35259;-38
2022/06/24 12:36:54;;;;;;;4.20;2.10;;;;;;100399.55;;;;107371;1290;33561;-40
2022/06/24 12:39:22;;;;;;;3.90;1.90;;;;;;100392.30;;;;107210;1292;35374;-39
2022/06/24 12:41:49;;;;;;;2.50;1.60;;;;;;100392.83;;;;107375;1290;33331;-39
2022/06/24 12:44:17;;;;;;;4.30;1.90;;;;;;100388.76;;;;107395;1290;33896;-45
2022/06/24 12:52:11;;;;;;;3.40;1.90;;;;;;100378.55;;;;107327;1290;33220;-41
2022/06/24 12:54:39;;;;;;;3.10;1.80;;;;;;100381.11;;;;107354;1295;34942;-38
2022/06/24 12:57:07;;;;;;;3.30;1.70;;;;;;100374.83;;;;107357;1290;31846;-43
2022/06/24 12:59:34;;;;;;;3.20;1.90;;;;;;100371.58;;;;107303;1291;34411;-42
2022/06/24 13:02:02;;;;;;;4.10;1.70;;;;;;100370.64;;;;107399;1291;34623;-42
2022/06/24 13:04:30;;;;;;;4.00;2.00;;;;;;100371.27;;;;107369;1291;33851;-39
2022/06/24 13:06:58;;;;;;;4.30;1.80;;;;;;100370.79;;;;107332;1290;32762;-41
2022/06/24 13:09:26;;;;;;;4.80;1.80;;;;;;100367.30;;;;107428;1290;34838;-38
2022/06/24 13:11:53;;;;;;;3.10;1.50;;;;;;100359.09;;;;107414;1290;34960;-39
2022/06/24 13:14:21;;;;;;;4.60;1.90;;;;;;100364.17;;;;107418;1290;35205;-50